Time;durP1;ratioP1;P1;durP2;ratioP2;P2;SDS_P1;SDS_P2;PMS_P1;PMS_P2;Temp;Humidity;BMP_temperature;BMP_pressure;BME280_temperature;BME280_humidity;BME280_pressure;Samples;Min_cycle;Max_cycle;Signal;HPM_P1;HPM_P2
2022/12/04 00:00:31;;;;;;;;;;;;;;;;;;6228774;22;19957;-86
2022/12/04 00:02:57;;;;;;;;;;;;;;;;;;6232188;22;20627;-86
2022/12/04 00:05:23;;;;;;;;;;;;;;;;;;6232108;22;19929;-86
2022/12/04 00:07:49;;;;;;;;;;;;;;;;;;6230287;22;20321;-87
2022/12/04 00:10:15;;;;;;;;;;;;;;;;;;6231117;22;19919;-86
2022/12/04 00:12:41;;;;;;;;;;;;;;;;;;6228983;22;19942;-86
2022/12/04 00:15:07;;;;;;;;;;;;;;;;;;6230369;22;19919;-86
2022/12/04 00:17:33;;;;;;;;;;;;;;;;;;6230053;22;19927;-86
2022/12/04 00:19:58;;;;;;;;;;;;;;;;;;6231905;22;19919;-86
2022/12/04 00:22:24;;;;;;;;;;;;;;;;;;6231288;22;19926;-86
2022/12/04 00:24:50;;;;;;;;;;;;;;;;;;6230977;22;19920;-86
2022/12/04 00:27:16;;;;;;;;;;;;;;;;;;6230804;22;20339;-86
2022/12/04 00:29:42;;;;;;;;;;;;;;;;;;6228626;22;19962;-86
2022/12/04 00:32:08;;;;;;;;;;;;;;;;;;6209563;22;19919;-86
2022/12/04 00:34:34;;;;;;;;;;;;;;;;;;6230294;22;20342;-87
2022/12/04 00:37:00;;;;;;;;;;;;;;;;;;6233566;22;19915;-86
2022/12/04 00:39:26;;;;;;;;;;;;;;;;;;6233222;22;20328;-86
2022/12/04 00:41:52;;;;;;;;;;;;;;;;;;6230997;22;19919;-87
2022/12/04 00:44:18;;;;;;;;;;;;;;;;;;6262145;22;20005;-86
2022/12/04 00:46:44;;;;;;;;;;;;;;;;;;6233320;22;19923;-86
2022/12/04 00:49:10;;;;;;;;;;;;;;;;;;6236252;22;20279;-87
2022/12/04 00:51:36;;;;;;;;;;;;;;;;;;6231280;22;19923;-87
2022/12/04 00:54:02;;;;;;;;;;;;;;;;;;6233032;22;19925;-86
2022/12/04 00:56:31;;;;;;;;;;;;;;;;;;6234041;22;19969;-86
2022/12/04 00:58:57;;;;;;;;;;;;;;;;;;6232294;22;19919;-86
2022/12/04 01:01:23;;;;;;;;;;;;;;;;;;6231910;22;19930;-86
2022/12/04 01:03:49;;;;;;;;;;;;;;;;;;6230206;22;20340;-86
2022/12/04 01:06:14;;;;;;;;;;;;;;;;;;6234658;22;19930;-86
2022/12/04 01:08:40;;;;;;;;;;;;;;;;;;6230156;22;20010;-86
2022/12/04 01:11:06;;;;;;;;;;;;;;;;;;6235346;22;19965;-87
2022/12/04 01:13:32;;;;;;;;;;;;;;;;;;6227337;22;19923;-86
2022/12/04 01:15:58;;;;;;;;;;;;;;;;;;6210539;22;19919;-87
2022/12/04 01:18:24;;;;;;;;;;;;;;;;;;6209496;22;19926;-86
2022/12/04 01:20:50;;;;;;;;;;;;;;;;;;6207641;22;19915;-86
2022/12/04 01:23:16;;;;;;;;;;;;;;;;;;6235902;22;19915;-86
2022/12/04 01:25:42;;;;;;;;;;;;;;;;;;6232346;22;19919;-87
2022/12/04 01:28:09;;;;;;;;;;;;;;;;;;6234567;22;19915;-87
2022/12/04 01:30:34;;;;;;;;;;;;;;;;;;6257249;22;19923;-87
2022/12/04 01:33:00;;;;;;;;;;;;;;;;;;6235626;22;19950;-87
2022/12/04 01:35:26;;;;;;;;;;;;;;;;;;6234596;22;19922;-86
2022/12/04 01:37:52;;;;;;;;;;;;;;;;;;6231148;22;19920;-86
2022/12/04 01:40:18;;;;;;;;;;;;;;;;;;6234996;22;19990;-86
2022/12/04 01:42:44;;;;;;;;;;;;;;;;;;6205489;22;19969;-86
2022/12/04 01:45:10;;;;;;;;;;;;;;;;;;6228843;22;19919;-86
2022/12/04 01:47:36;;;;;;;;;;;;;;;;;;6231869;22;19999;-86
2022/12/04 01:50:02;;;;;;;;;;;;;;;;;;6236331;22;19923;-86
2022/12/04 01:52:28;;;;;;;;;;;;;;;;;;6237381;22;19964;-86
2022/12/04 01:54:54;;;;;;;;;;;;;;;;;;6236041;22;19919;-86
2022/12/04 01:57:20;;;;;;;;;;;;;;;;;;6235373;22;19919;-86
2022/12/04 01:59:46;;;;;;;;;;;;;;;;;;6232540;22;19919;-85
2022/12/04 02:02:12;;;;;;;;;;;;;;;;;;6236429;22;19942;-86
2022/12/04 02:04:38;;;;;;;;;;;;;;;;;;6232426;22;19954;-86
2022/12/04 02:07:04;;;;;;;;;;;;;;;;;;6234387;22;19923;-86
2022/12/04 02:09:30;;;;;;;;;;;;;;;;;;6232858;22;19934;-87
2022/12/04 02:11:56;;;;;;;;;;;;;;;;;;6256895;22;19919;-87
2022/12/04 02:14:22;;;;;;;;;;;;;;;;;;6230497;22;19919;-86
2022/12/04 02:16:48;;;;;;;;;;;;;;;;;;6233550;22;20452;-86
2022/12/04 02:19:14;;;;;;;;;;;;;;;;;;6233581;22;19919;-86
2022/12/04 02:21:40;;;;;;;;;;;;;;;;;;6229413;22;20397;-86
2022/12/04 02:24:05;;;;;;;;;;;;;;;;;;6233861;22;19925;-87
2022/12/04 02:26:31;;;;;;;;;;;;;;;;;;6231125;22;19923;-86
2022/12/04 02:28:57;;;;;;;;;;;;;;;;;;6234504;22;19938;-87
2022/12/04 02:31:23;;;;;;;;;;;;;;;;;;6232635;22;19959;-87
2022/12/04 02:33:49;;;;;;;;;;;;;;;;;;6231127;22;19968;-87
2022/12/04 02:36:15;;;;;;;;;;;;;;;;;;6260076;22;19977;-86
2022/12/04 02:38:41;;;;;;;;;;;;;;;;;;6230644;22;20364;-87
2022/12/04 02:41:07;;;;;;;;;;;;;;;;;;6259305;22;20351;-87
2022/12/04 02:43:33;;;;;;;;;;;;;;;;;;6231172;22;20329;-87
2022/12/04 02:45:59;;;;;;;;;;;;;;;;;;6208322;22;20365;-87
2022/12/04 02:48:25;;;;;;;;;;;;;;;;;;6232951;22;20037;-88
2022/12/04 02:50:51;;;;;;;;;;;;;;;;;;6230818;22;19947;-87
2022/12/04 02:53:17;;;;;;;;;;;;;;;;;;6235148;22;19926;-87
2022/12/04 02:55:43;;;;;;;;;;;;;;;;;;6230204;22;19998;-87
2022/12/04 02:58:09;;;;;;;;;;;;;;;;;;6234069;22;19919;-87
2022/12/04 03:00:35;;;;;;;;;;;;;;;;;;6229960;22;19918;-87
2022/12/04 03:03:01;;;;;;;;;;;;;;;;;;6234693;22;20312;-87
2022/12/04 03:05:27;;;;;;;;;;;;;;;;;;6234698;22;20291;-87
2022/12/04 03:07:56;;;;;;;;;;;;;;;;;;6233857;22;19986;-87
2022/12/04 03:10:22;;;;;;;;;;;;;;;;;;6235460;22;20361;-87
2022/12/04 03:12:48;;;;;;;;;;;;;;;;;;6259799;22;20278;-87
2022/12/04 03:15:14;;;;;;;;;;;;;;;;;;6236513;22;19958;-87
2022/12/04 03:17:39;;;;;;;;;;;;;;;;;;6231298;22;20256;-87
2022/12/04 03:20:05;;;;;;;;;;;;;;;;;;6235783;22;20391;-86
2022/12/04 03:22:31;;;;;;;;;;;;;;;;;;6234143;22;19923;-87
2022/12/04 03:24:57;;;;;;;;;;;;;;;;;;6236443;22;20072;-87
2022/12/04 03:27:23;;;;;;;;;;;;;;;;;;6235960;22;19969;-87
2022/12/04 03:29:49;;;;;;;;;;;;;;;;;;6231053;22;19920;-87
2022/12/04 03:32:15;;;;;;;;;;;;;;;;;;6238170;22;20430;-88
2022/12/04 03:34:41;;;;;;;;;;;;;;;;;;6231567;22;19926;-87
2022/12/04 03:37:07;;;;;;;;;;;;;;;;;;6234126;22;19919;-87
2022/12/04 03:39:33;;;;;;;;;;;;;;;;;;6207234;22;19916;-87
2022/12/04 03:41:59;;;;;;;;;;;;;;;;;;6235614;22;19930;-87
2022/12/04 03:44:25;;;;;;;;;;;;;;;;;;6235146;22;19919;-87
2022/12/04 03:46:51;;;;;;;;;;;;;;;;;;6229909;22;20260;-87
2022/12/04 03:49:17;;;;;;;;;;;;;;;;;;6262211;22;19938;-87
2022/12/04 03:51:43;;;;;;;;;;;;;;;;;;6231031;22;19930;-87
2022/12/04 03:54:09;;;;;;;;;;;;;;;;;;6232719;22;20018;-87
2022/12/04 03:56:35;;;;;;;;;;;;;;;;;;6230986;22;19924;-87
2022/12/04 03:59:00;;;;;;;;;;;;;;;;;;6234726;22;19919;-87
2022/12/04 04:01:26;;;;;;;;;;;;;;;;;;6233613;22;19919;-87
2022/12/04 04:03:52;;;;;;;;;;;;;;;;;;6231567;22;19959;-87
2022/12/04 04:06:18;;;;;;;;;;;;;;;;;;6231942;22;19927;-87
2022/12/04 04:08:44;;;;;;;;;;;;;;;;;;6230950;22;19926;-87
2022/12/04 04:11:10;;;;;;;;;;;;;;;;;;6232997;22;19923;-87
2022/12/04 04:24:35;;;;;;;;;;;;;;;;;;6232307;22;19995;-87
2022/12/04 04:27:01;;;;;;;;;;;;;;;;;;6235883;22;20359;-87
2022/12/04 04:29:27;;;;;;;;;;;;;;;;;;6210612;22;19919;-86
2022/12/04 04:31:53;;;;;;;;;;;;;;;;;;6230994;22;19993;-87
2022/12/04 04:34:19;;;;;;;;;;;;;;;;;;6233000;22;20363;-87
2022/12/04 04:36:45;;;;;;;;;;;;;;;;;;6229707;22;19919;-87
2022/12/04 04:39:11;;;;;;;;;;;;;;;;;;6236730;22;19989;-88
2022/12/04 04:41:37;;;;;;;;;;;;;;;;;;6233921;22;19915;-87
2022/12/04 04:44:03;;;;;;;;;;;;;;;;;;6211412;22;19919;-87
2022/12/04 04:46:29;;;;;;;;;;;;;;;;;;6230873;22;19923;-86
2022/12/04 04:48:55;;;;;;;;;;;;;;;;;;6207071;22;20379;-87
2022/12/04 04:51:21;;;;;;;;;;;;;;;;;;6232750;22;20363;-87
2022/12/04 04:53:47;;;;;;;;;;;;;;;;;;6230967;22;20225;-87
2022/12/04 04:56:13;;;;;;;;;;;;;;;;;;6232522;22;20327;-87
2022/12/04 04:58:41;;;;;;;;;;;;;;;;;;6227650;22;20244;-87
2022/12/04 05:01:07;;;;;;;;;;;;;;;;;;6232191;22;19927;-88
2022/12/04 05:03:33;;;;;;;;;;;;;;;;;;6206166;22;20310;-87
2022/12/04 05:05:59;;;;;;;;;;;;;;;;;;6232491;22;20344;-86
2022/12/04 05:08:25;;;;;;;;;;;;;;;;;;6232578;22;19941;-86
2022/12/04 05:10:51;;;;;;;;;;;;;;;;;;6230409;22;19923;-87
2022/12/04 05:13:17;;;;;;;;;;;;;;;;;;6232778;22;20346;-87
2022/12/04 05:15:43;;;;;;;;;;;;;;;;;;6204529;22;20367;-87
2022/12/04 05:18:09;;;;;;;;;;;;;;;;;;6232874;22;20344;-87
2022/12/04 05:20:35;;;;;;;;;;;;;;;;;;6230969;22;20244;-87
2022/12/04 05:23:01;;;;;;;;;;;;;;;;;;6237048;22;19926;-87
2022/12/04 05:25:27;;;;;;;;;;;;;;;;;;6238673;22;19919;-87
2022/12/04 05:27:53;;;;;;;;;;;;;;;;;;6231568;22;19930;-87
2022/12/04 05:30:19;;;;;;;;;;;;;;;;;;6234009;22;19915;-87
2022/12/04 05:32:45;;;;;;;;;;;;;;;;;;6231680;22;19963;-88
2022/12/04 05:35:11;;;;;;;;;;;;;;;;;;6233558;22;19919;-87
2022/12/04 05:37:36;;;;;;;;;;;;;;;;;;6259233;22;19934;-87
2022/12/04 05:40:02;;;;;;;;;;;;;;;;;;6234593;22;19973;-86
2022/12/04 05:42:28;;;;;;;;;;;;;;;;;;6231076;22;20252;-86
2022/12/04 05:44:54;;;;;;;;;;;;;;;;;;6233711;22;19954;-87
2022/12/04 05:47:20;;;;;;;;;;;;;;;;;;6234936;22;19965;-87
2022/12/04 05:49:46;;;;;;;;;;;;;;;;;;6230898;22;19990;-87
2022/12/04 05:52:12;;;;;;;;;;;;;;;;;;6235096;22;19923;-87
2022/12/04 05:54:39;;;;;;;;;;;;;;;;;;6232160;22;19919;-87
2022/12/04 05:57:05;;;;;;;;;;;;;;;;;;6234094;22;19919;-87
2022/12/04 05:59:30;;;;;;;;;;;;;;;;;;6231626;22;19915;-88
2022/12/04 06:01:56;;;;;;;;;;;;;;;;;;6233442;22;19920;-87
2022/12/04 06:04:22;;;;;;;;;;;;;;;;;;6232673;22;19931;-87
2022/12/04 06:06:48;;;;;;;;;;;;;;;;;;6231503;22;20282;-87
2022/12/04 06:09:14;;;;;;;;;;;;;;;;;;6234450;22;19923;-87
2022/12/04 06:11:40;;;;;;;;;;;;;;;;;;6234400;22;20310;-87
2022/12/04 06:14:06;;;;;;;;;;;;;;;;;;6235484;22;20016;-87
2022/12/04 06:16:32;;;;;;;;;;;;;;;;;;6230160;22;19923;-86
2022/12/04 06:18:58;;;;;;;;;;;;;;;;;;6234312;22;19926;-87
2022/12/04 06:21:24;;;;;;;;;;;;;;;;;;6233775;22;19919;-87
2022/12/04 06:23:50;;;;;;;;;;;;;;;;;;6232003;22;19941;-86
2022/12/04 06:26:16;;;;;;;;;;;;;;;;;;6237997;22;19989;-87
2022/12/04 06:28:42;;;;;;;;;;;;;;;;;;6232356;22;19919;-87
2022/12/04 06:31:08;;;;;;;;;;;;;;;;;;6209014;22;19919;-87
2022/12/04 06:33:34;;;;;;;;;;;;;;;;;;6232311;22;19998;-87
2022/12/04 06:36:00;;;;;;;;;;;;;;;;;;6234586;22;19923;-88
2022/12/04 06:38:26;;;;;;;;;;;;;;;;;;6233276;22;19920;-87
2022/12/04 06:40:51;;;;;;;;;;;;;;;;;;6229746;22;20316;-87
2022/12/04 06:43:17;;;;;;;;;;;;;;;;;;6234781;22;20029;-87
2022/12/04 06:45:43;;;;;;;;;;;;;;;;;;6232162;22;19919;-87
2022/12/04 06:48:09;;;;;;;;;;;;;;;;;;6233032;22;20423;-87
2022/12/04 06:50:35;;;;;;;;;;;;;;;;;;6228915;22;19919;-87
2022/12/04 06:53:01;;;;;;;;;;;;;;;;;;6259811;22;19942;-87
2022/12/04 06:55:30;;;;;;;;;;;;;;;;;;6233801;22;19973;-87
2022/12/04 06:57:56;;;;;;;;;;;;;;;;;;6260024;22;19919;-87
2022/12/04 07:00:22;;;;;;;;;;;;;;;;;;6233670;22;19976;-87
2022/12/04 07:02:49;;;;;;;;;;;;;;;;;;6229918;22;20319;-87
2022/12/04 07:05:15;;;;;;;;;;;;;;;;;;6233483;22;19946;-87
2022/12/04 07:07:40;;;;;;;;;;;;;;;;;;6230113;22;19975;-87
2022/12/04 07:10:06;;;;;;;;;;;;;;;;;;6236657;22;19963;-87
2022/12/04 07:12:32;;;;;;;;;;;;;;;;;;6229590;22;19919;-87
2022/12/04 07:14:58;;;;;;;;;;;;;;;;;;6233813;22;19919;-88
2022/12/04 07:17:24;;;;;;;;;;;;;;;;;;6232566;22;19919;-86
2022/12/04 07:19:53;;;;;;;;;;;;;;;;;;6227680;22;20390;-87
2022/12/04 07:22:19;;;;;;;;;;;;;;;;;;6258597;22;19925;-87
2022/12/04 07:24:45;;;;;;;;;;;;;;;;;;6228208;22;19990;-87
2022/12/04 07:27:11;;;;;;;;;;;;;;;;;;6231146;22;19937;-87
2022/12/04 07:29:36;;;;;;;;;;;;;;;;;;6231435;22;19919;-87
2022/12/04 07:32:02;;;;;;;;;;;;;;;;;;6230495;22;19923;-87
2022/12/04 07:34:29;;;;;;;;;;;;;;;;;;6230736;22;19986;-87
2022/12/04 07:36:55;;;;;;;;;;;;;;;;;;6226349;22;20335;-87
2022/12/04 07:39:21;;;;;;;;;;;;;;;;;;6231756;22;19930;-88
2022/12/04 07:41:47;;;;;;;;;;;;;;;;;;6231247;22;19990;-88
2022/12/04 07:44:13;;;;;;;;;;;;;;;;;;6232284;22;19969;-88
2022/12/04 07:46:39;;;;;;;;;;;;;;;;;;6203782;22;20316;-88
2022/12/04 07:49:05;;;;;;;;;;;;;;;;;;6205692;22;19942;-88
2022/12/04 07:51:31;;;;;;;;;;;;;;;;;;6229113;22;19923;-88
2022/12/04 07:53:57;;;;;;;;;;;;;;;;;;6232436;22;20409;-88
2022/12/04 07:56:23;;;;;;;;;;;;;;;;;;6256413;22;19953;-88
2022/12/04 07:58:49;;;;;;;;;;;;;;;;;;6204202;22;20395;-88
2022/12/04 08:01:15;;;;;;;;;;;;;;;;;;6228215;22;20397;-88
2022/12/04 08:03:40;;;;;;;;;;;;;;;;;;6229874;22;19919;-88
2022/12/04 08:06:06;;;;;;;;;;;;;;;;;;6233173;22;19923;-87
2022/12/04 08:08:32;;;;;;;;;;;;;;;;;;6228784;22;19923;-87
2022/12/04 08:10:58;;;;;;;;;;;;;;;;;;6231090;22;19919;-88
2022/12/04 08:13:24;;;;;;;;;;;;;;;;;;6230540;22;19922;-88
2022/12/04 08:15:50;;;;;;;;;;;;;;;;;;6228027;22;20445;-88
2022/12/04 08:18:16;;;;;;;;;;;;;;;;;;6229649;22;20502;-88
2022/12/04 08:20:42;;;;;;;;;;;;;;;;;;6229932;22;19930;-88
2022/12/04 08:23:08;;;;;;;;;;;;;;;;;;6229824;22;19954;-88
2022/12/04 08:25:35;;;;;;;;;;;;;;;;;;6230142;22;19969;-88
2022/12/04 08:28:02;;;;;;;;;;;;;;;;;;6231398;22;20303;-88
2022/12/04 08:30:28;;;;;;;;;;;;;;;;;;6231553;22;19925;-88
2022/12/04 08:32:57;;;;;;;;;;;;;;;;;;6229320;22;19919;-88
2022/12/04 08:35:23;;;;;;;;;;;;;;;;;;6228332;22;19923;-88
2022/12/04 08:37:49;;;;;;;;;;;;;;;;;;6231003;22;19999;-88
2022/12/04 08:40:16;;;;;;;;;;;;;;;;;;6229997;22;19919;-88
2022/12/04 08:42:42;;;;;;;;;;;;;;;;;;6230531;22;19923;-88
2022/12/04 08:45:08;;;;;;;;;;;;;;;;;;6231335;22;19954;-88
2022/12/04 08:47:34;;;;;;;;;;;;;;;;;;6202822;22;20032;-87
2022/12/04 08:49:59;;;;;;;;;;;;;;;;;;6231311;22;19926;-88
2022/12/04 08:52:25;;;;;;;;;;;;;;;;;;6230873;22;19919;-88
2022/12/04 08:54:51;;;;;;;;;;;;;;;;;;6230164;22;19922;-88
2022/12/04 08:57:17;;;;;;;;;;;;;;;;;;6231179;22;19915;-89
2022/12/04 08:59:43;;;;;;;;;;;;;;;;;;6230063;22;19923;-88
2022/12/04 09:02:09;;;;;;;;;;;;;;;;;;6233458;22;20351;-88
2022/12/04 09:04:35;;;;;;;;;;;;;;;;;;6230978;22;20304;-88
2022/12/04 09:07:01;;;;;;;;;;;;;;;;;;6227863;22;19974;-88
2022/12/04 09:09:27;;;;;;;;;;;;;;;;;;6232067;22;19945;-88
2022/12/04 09:11:53;;;;;;;;;;;;;;;;;;6229046;22;19919;-88
2022/12/04 09:14:24;;;;;;;;;;;;;;;;;;6235724;22;20022;-88
2022/12/04 09:16:50;;;;;;;;;;;;;;;;;;6229458;22;19919;-89
2022/12/04 09:19:16;;;;;;;;;;;;;;;;;;6232287;22;20562;-87
2022/12/04 09:21:42;;;;;;;;;;;;;;;;;;6231751;22;19954;-87
2022/12/04 09:24:09;;;;;;;;;;;;;;;;;;6231305;22;19919;-87
2022/12/04 09:26:35;;;;;;;;;;;;;;;;;;6231012;22;19980;-87
2022/12/04 09:29:00;;;;;;;;;;;;;;;;;;6205126;22;19977;-93
2022/12/04 09:31:30;;;;;;;;;;;;;;;;;;6240417;22;19919;-90
2022/12/04 09:33:55;;;;;;;;;;;;;;;;;;6237522;22;19941;-89
2022/12/04 09:36:21;;;;;;;;;;;;;;;;;;6230023;22;19919;-90
2022/12/04 09:38:47;;;;;;;;;;;;;;;;;;6232796;22;19919;-89
2022/12/04 09:41:13;;;;;;;;;;;;;;;;;;6229217;22;20340;-89
2022/12/04 09:43:39;;;;;;;;;;;;;;;;;;6225830;23;19924;-90
2022/12/04 09:46:05;;;;;;;;;;;;;;;;;;6226394;23;19923;-89
2022/12/04 09:48:31;;;;;;;;;;;;;;;;;;6223199;23;20253;-89
2022/12/04 09:50:57;;;;;;;;;;;;;;;;;;6226338;23;19942;-89
2022/12/04 09:53:23;;;;;;;;;;;;;;;;;;6223700;23;19920;-92
2022/12/04 09:55:49;;;;;;;;;;;;;;;;;;6223618;22;19919;-90
2022/12/04 09:58:15;;;;;;;;;;;;;;;;;;6225049;23;20327;-89
2022/12/04 10:00:41;;;;;;;;;;;;;;;;;;6223193;23;20165;-90
2022/12/04 10:03:07;;;;;;;;;;;;;;;;;;6223768;23;19924;-90
2022/12/04 10:05:33;;;;;;;;;;;;;;;;;;6224144;23;20241;-89
2022/12/04 10:07:59;;;;;;;;;;;;;;;;;;6226972;23;19920;-89
2022/12/04 10:10:25;;;;;;;;;;;;;;;;;;6224161;23;19919;-89
2022/12/04 10:12:51;;;;;;;;;;;;;;;;;;6220510;23;19943;-89
2022/12/04 10:15:17;;;;;;;;;;;;;;;;;;6224088;23;19919;-89
2022/12/04 10:17:43;;;;;;;;;;;;;;;;;;6221331;23;19926;-89
2022/12/04 10:20:09;;;;;;;;;;;;;;;;;;6223751;23;20230;-90
2022/12/04 10:22:35;;;;;;;;;;;;;;;;;;6220177;23;19920;-89
2022/12/04 10:25:01;;;;;;;;;;;;;;;;;;6224335;23;20022;-89
2022/12/04 10:27:27;;;;;;;;;;;;;;;;;;6226463;23;19924;-89
2022/12/04 10:29:53;;;;;;;;;;;;;;;;;;6222086;23;19919;-89
2022/12/04 10:32:19;;;;;;;;;;;;;;;;;;6221854;23;20100;-89
2022/12/04 10:34:45;;;;;;;;;;;;;;;;;;6218497;23;20054;-89
2022/12/04 10:37:10;;;;;;;;;;;;;;;;;;6222171;23;19927;-89
2022/12/04 10:39:36;;;;;;;;;;;;;;;;;;6220578;23;20364;-89
2022/12/04 10:42:02;;;;;;;;;;;;;;;;;;6224941;23;20313;-89
2022/12/04 10:44:28;;;;;;;;;;;;;;;;;;6228261;22;19923;-89
2022/12/04 10:46:55;;;;;;;;;;;;;;;;;;6228129;22;19925;-89
2022/12/04 10:49:21;;;;;;;;;;;;;;;;;;6251659;22;19974;-89
2022/12/04 10:51:47;;;;;;;;;;;;;;;;;;6225157;22;20259;-89
2022/12/04 10:54:13;;;;;;;;;;;;;;;;;;6227984;22;19986;-89
2022/12/04 10:56:38;;;;;;;;;;;;;;;;;;6202107;22;19994;-90
2022/12/04 10:59:04;;;;;;;;;;;;;;;;;;6205261;22;20384;-90
2022/12/04 11:01:30;;;;;;;;;;;;;;;;;;6203389;22;19929;-89
2022/12/04 11:03:56;;;;;;;;;;;;;;;;;;6204885;22;19920;-89
2022/12/04 11:06:22;;;;;;;;;;;;;;;;;;6231123;22;20241;-91
2022/12/04 11:08:48;;;;;;;;;;;;;;;;;;6204270;22;20290;-89
2022/12/04 11:11:14;;;;;;;;;;;;;;;;;;6227663;22;19919;-89
2022/12/04 11:13:40;;;;;;;;;;;;;;;;;;6224904;22;20394;-90
2022/12/04 11:16:06;;;;;;;;;;;;;;;;;;6227865;22;19950;-89
2022/12/04 11:18:32;;;;;;;;;;;;;;;;;;6222754;22;19924;-89
2022/12/04 11:20:58;;;;;;;;;;;;;;;;;;6228983;22;19926;-89
2022/12/04 11:23:24;;;;;;;;;;;;;;;;;;6228279;22;19964;-89
2022/12/04 11:25:50;;;;;;;;;;;;;;;;;;6225679;22;19950;-89
2022/12/04 11:28:16;;;;;;;;;;;;;;;;;;6230367;22;20348;-90
2022/12/04 11:30:42;;;;;;;;;;;;;;;;;;6248130;22;19946;-90
2022/12/04 11:33:08;;;;;;;;;;;;;;;;;;6224626;22;20411;-89
2022/12/04 11:35:34;;;;;;;;;;;;;;;;;;6221794;22;20364;-90
2022/12/04 11:38:00;;;;;;;;;;;;;;;;;;6225279;22;19919;-89
2022/12/04 11:40:26;;;;;;;;;;;;;;;;;;6227636;22;19976;-89
2022/12/04 11:42:52;;;;;;;;;;;;;;;;;;6226790;22;19930;-89
2022/12/04 11:45:18;;;;;;;;;;;;;;;;;;6226391;22;19920;-90
2022/12/04 11:47:44;;;;;;;;;;;;;;;;;;6221270;22;20013;-89
2022/12/04 11:50:11;;;;;;;;;;;;;;;;;;6225030;22;19919;-90
2022/12/04 11:52:37;;;;;;;;;;;;;;;;;;6249844;22;20529;-90
2022/12/04 11:55:03;;;;;;;;;;;;;;;;;;6201269;22;19920;-90
2022/12/04 11:57:29;;;;;;;;;;;;;;;;;;6226965;22;20355;-89
2022/12/04 11:59:55;;;;;;;;;;;;;;;;;;6227234;22;20352;-90
2022/12/04 12:02:21;;;;;;;;;;;;;;;;;;6225649;22;19919;-90
2022/12/04 12:04:47;;;;;;;;;;;;;;;;;;6226660;22;19920;-90
2022/12/04 12:07:13;;;;;;;;;;;;;;;;;;6253197;22;20332;-90
2022/12/04 12:09:39;;;;;;;;;;;;;;;;;;6199382;22;19993;-88
2022/12/04 12:12:05;;;;;;;;;;;;;;;;;;6228966;22;19926;-88
2022/12/04 12:14:31;;;;;;;;;;;;;;;;;;6222141;22;20246;-89
2022/12/04 12:16:57;;;;;;;;;;;;;;;;;;6225906;22;20147;-89
2022/12/04 12:19:23;;;;;;;;;;;;;;;;;;6224915;22;19919;-88
2022/12/04 12:21:49;;;;;;;;;;;;;;;;;;6224657;22;20234;-89
2022/12/04 12:24:15;;;;;;;;;;;;;;;;;;6226224;22;19919;-88
2022/12/04 12:26:41;;;;;;;;;;;;;;;;;;6228239;22;19923;-88
2022/12/04 12:29:09;;;;;;;;;;;;;;;;;;6229183;22;20639;-89
2022/12/04 12:31:37;;;;;;;;;;;;;;;;;;6228993;22;19919;-89
2022/12/04 12:34:03;;;;;;;;;;;;;;;;;;6204051;22;20016;-89
2022/12/04 12:36:32;;;;;;;;;;;;;;;;;;6226185;22;19965;-89
2022/12/04 12:39:01;;;;;;;;;;;;;;;;;;6204118;22;20001;-89
2022/12/04 12:41:29;;;;;;;;;;;;;;;;;;6230721;22;20272;-89
2022/12/04 12:43:58;;;;;;;;;;;;;;;;;;6230271;22;19923;-89
2022/12/04 12:46:32;;;;;;;;;;;;;;;;;;6226706;22;19923;-89
2022/12/04 12:48:58;;;;;;;;;;;;;;;;;;6227633;22;20251;-88
2022/12/04 12:51:24;;;;;;;;;;;;;;;;;;6227298;22;19926;-88
2022/12/04 12:53:52;;;;;;;;;;;;;;;;;;6225659;22;19919;-89
2022/12/04 12:56:18;;;;;;;;;;;;;;;;;;6250883;22;19919;-89
2022/12/04 12:58:44;;;;;;;;;;;;;;;;;;6225310;22;20182;-89
2022/12/04 13:01:10;;;;;;;;;;;;;;;;;;6229545;22;19930;-89
2022/12/04 13:03:36;;;;;;;;;;;;;;;;;;6224771;22;19919;-89
2022/12/04 13:06:02;;;;;;;;;;;;;;;;;;6226071;22;19923;-89
2022/12/04 13:08:31;;;;;;;;;;;;;;;;;;6228303;22;19919;-89
2022/12/04 13:10:57;;;;;;;;;;;;;;;;;;6225425;22;19919;-89
2022/12/04 13:13:24;;;;;;;;;;;;;;;;;;6198730;22;19926;-89
2022/12/04 13:15:50;;;;;;;;;;;;;;;;;;6223826;22;19919;-89
2022/12/04 13:18:16;;;;;;;;;;;;;;;;;;6227500;22;19919;-89
2022/12/04 13:20:43;;;;;;;;;;;;;;;;;;6192151;22;20299;-89
2022/12/04 13:23:09;;;;;;;;;;;;;;;;;;6228680;22;19919;-89
2022/12/04 13:25:35;;;;;;;;;;;;;;;;;;6224497;22;19919;-88
2022/12/04 13:28:01;;;;;;;;;;;;;;;;;;6228371;22;19962;-88
2022/12/04 13:30:30;;;;;;;;;;;;;;;;;;6225318;22;20347;-88
2022/12/04 13:32:59;;;;;;;;;;;;;;;;;;6225777;22;19950;-88
2022/12/04 13:35:27;;;;;;;;;;;;;;;;;;6225179;22;19919;-88
2022/12/04 13:37:56;;;;;;;;;;;;;;;;;;6226697;22;19919;-88
2022/12/04 13:40:22;;;;;;;;;;;;;;;;;;6197208;22;19923;-89
2022/12/04 13:42:51;;;;;;;;;;;;;;;;;;6201849;22;20385;-89
2022/12/04 13:45:17;;;;;;;;;;;;;;;;;;6205143;22;19985;-89
2022/12/04 13:47:43;;;;;;;;;;;;;;;;;;6228518;22;19927;-89
2022/12/04 13:50:09;;;;;;;;;;;;;;;;;;6255643;22;19919;-89
2022/12/04 13:52:35;;;;;;;;;;;;;;;;;;6227568;22;19986;-89
2022/12/04 13:55:01;;;;;;;;;;;;;;;;;;6230435;22;19951;-89
2022/12/04 13:57:27;;;;;;;;;;;;;;;;;;6256811;22;20386;-89
2022/12/04 13:59:56;;;;;;;;;;;;;;;;;;6230088;22;19915;-89
2022/12/04 14:02:22;;;;;;;;;;;;;;;;;;6201087;22;19929;-90
2022/12/04 14:04:48;;;;;;;;;;;;;;;;;;6227587;22;20404;-90
2022/12/04 14:07:14;;;;;;;;;;;;;;;;;;6227290;22;19923;-90
2022/12/04 14:09:40;;;;;;;;;;;;;;;;;;6226534;22;19919;-89
2022/12/04 14:12:06;;;;;;;;;;;;;;;;;;6226788;22;20548;-89
2022/12/04 14:14:32;;;;;;;;;;;;;;;;;;6226519;22;19923;-90
2022/12/04 14:16:58;;;;;;;;;;;;;;;;;;6228540;22;19950;-90
2022/12/04 14:19:27;;;;;;;;;;;;;;;;;;6228120;22;20229;-90
2022/12/04 14:22:00;;;;;;;;;;;;;;;;;;6225843;22;19930;-90
2022/12/04 14:24:37;;;;;;;;;;;;;;;;;;6226673;22;19919;-89
2022/12/04 14:27:06;;;;;;;;;;;;;;;;;;6203015;22;20325;-90
2022/12/04 14:32:30;;;;;;;;;;;;;;;;;;6249205;22;19923;-89
2022/12/04 14:35:15;;;;;;;;;;;;;;;;;;6225116;22;20340;-90
2022/12/04 14:37:47;;;;;;;;;;;;;;;;;;6227946;22;19973;-90
2022/12/04 14:40:35;;;;;;;;;;;;;;;;;;6229610;22;19919;-90
2022/12/04 14:43:13;;;;;;;;;;;;;;;;;;6227086;23;20336;-90
2022/12/04 14:45:57;;;;;;;;;;;;;;;;;;6244570;22;20256;-90
2022/12/04 14:48:27;;;;;;;;;;;;;;;;;;6223794;23;19924;-90
2022/12/04 14:51:06;;;;;;;;;;;;;;;;;;6222495;23;19919;-90
2022/12/04 14:53:35;;;;;;;;;;;;;;;;;;6222791;23;20325;-90
2022/12/04 14:56:12;;;;;;;;;;;;;;;;;;6223089;23;20297;-90
2022/12/04 14:58:41;;;;;;;;;;;;;;;;;;6218161;23;19919;-90
2022/12/04 15:01:28;;;;;;;;;;;;;;;;;;6246286;22;20257;-89
2022/12/04 15:04:01;;;;;;;;;;;;;;;;;;6214922;23;19919;-88
2022/12/04 15:06:46;;;;;;;;;;;;;;;;;;6219641;22;20637;-91
2022/12/04 15:14:51;;;;;;;;;;;;;;;;;;6220515;23;19919;-89
2022/12/04 15:17:17;;;;;;;;;;;;;;;;;;6218905;23;20321;-87
2022/12/04 15:19:43;;;;;;;;;;;;;;;;;;6217543;23;20332;-90
2022/12/04 15:22:09;;;;;;;;;;;;;;;;;;6220820;23;19985;-90
2022/12/04 15:24:38;;;;;;;;;;;;;;;;;;6220844;23;19920;-90
2022/12/04 15:27:06;;;;;;;;;;;;;;;;;;6223080;23;19928;-90
2022/12/04 15:29:54;;;;;;;;;;;;;;;;;;6218843;23;19920;-93
2022/12/04 15:32:37;;;;;;;;;;;;;;;;;;6095734;23;19979;-88
2022/12/04 15:35:02;;;;;;;;;;;;;;;;;;6174748;23;19958;-92
2022/12/04 15:37:31;;;;;;;;;;;;;;;;;;6221076;23;19915;-89
2022/12/04 15:39:57;;;;;;;;;;;;;;;;;;6222842;23;20359;-87
2022/12/04 15:42:23;;;;;;;;;;;;;;;;;;6220568;23;19937;-87
2022/12/04 15:44:49;;;;;;;;;;;;;;;;;;6219023;23;20032;-88
2022/12/04 15:47:15;;;;;;;;;;;;;;;;;;6221233;23;19998;-86
2022/12/04 15:49:41;;;;;;;;;;;;;;;;;;6218588;23;19953;-87
2022/12/04 15:52:07;;;;;;;;;;;;;;;;;;6228172;23;20412;-87
2022/12/04 15:54:35;;;;;;;;;;;;;;;;;;6220629;22;19919;-88
2022/12/04 15:57:01;;;;;;;;;;;;;;;;;;6222708;23;20324;-87
2022/12/04 15:59:27;;;;;;;;;;;;;;;;;;6222367;23;19919;-88
2022/12/04 16:01:54;;;;;;;;;;;;;;;;;;6220362;23;20297;-88
2022/12/04 16:04:21;;;;;;;;;;;;;;;;;;6222818;23;19920;-87
2022/12/04 16:06:47;;;;;;;;;;;;;;;;;;6243318;22;19930;-88
2022/12/04 16:09:13;;;;;;;;;;;;;;;;;;6223129;23;19919;-88
2022/12/04 16:11:42;;;;;;;;;;;;;;;;;;6220129;23;19978;-88
2022/12/04 16:14:08;;;;;;;;;;;;;;;;;;6221078;23;19919;-88
2022/12/04 16:16:34;;;;;;;;;;;;;;;;;;6220031;23;20370;-88
2022/12/04 16:19:00;;;;;;;;;;;;;;;;;;6245916;22;19920;-88
2022/12/04 16:21:26;;;;;;;;;;;;;;;;;;6222145;23;19916;-88
2022/12/04 16:23:52;;;;;;;;;;;;;;;;;;6216822;23;20008;-88
2022/12/04 16:26:18;;;;;;;;;;;;;;;;;;6217357;23;19926;-88
2022/12/04 16:28:44;;;;;;;;;;;;;;;;;;6219617;23;19923;-88
2022/12/04 16:31:10;;;;;;;;;;;;;;;;;;6221514;23;20404;-88
2022/12/04 16:33:36;;;;;;;;;;;;;;;;;;6222085;23;20340;-88
2022/12/04 16:36:02;;;;;;;;;;;;;;;;;;6223257;23;20307;-88
2022/12/04 16:38:31;;;;;;;;;;;;;;;;;;6220895;23;20376;-88
2022/12/04 16:40:57;;;;;;;;;;;;;;;;;;6221143;23;19919;-88
2022/12/04 16:43:23;;;;;;;;;;;;;;;;;;6224633;22;19923;-88
2022/12/04 16:45:49;;;;;;;;;;;;;;;;;;6197323;22;20244;-89
2022/12/04 16:48:15;;;;;;;;;;;;;;;;;;6202561;22;19931;-88
2022/12/04 16:50:41;;;;;;;;;;;;;;;;;;6196384;22;19919;-88
2022/12/04 16:53:07;;;;;;;;;;;;;;;;;;6202429;22;20320;-88
2022/12/04 16:55:33;;;;;;;;;;;;;;;;;;6198672;22;19923;-88
2022/12/04 16:57:59;;;;;;;;;;;;;;;;;;6202829;22;19984;-88
2022/12/04 17:00:25;;;;;;;;;;;;;;;;;;6198934;22;19926;-88